Time;durP1;ratioP1;P1;durP2;ratioP2;P2;SDS_P1;SDS_P2;PMS_P1;PMS_P2;Temp;Humidity;BMP_temperature;BMP_pressure;BME280_temperature;BME280_humidity;BME280_pressure;Samples;Min_cycle;Max_cycle;Signal;HPM_P1;HPM_P2
2023/08/28 00:00:13;;;;;;;4.28;3.88;;;15.10;1.00;;;;;;5053465;28;20216;-79
2023/08/28 00:02:44;;;;;;;4.72;4.15;;;15.00;1.00;;;;;;5047001;28;20193;-79
2023/08/28 00:05:11;;;;;;;4.10;3.67;;;15.00;1.00;;;;;;5056476;28;20727;-79
2023/08/28 00:07:38;;;;;;;4.90;4.40;;;14.90;1.00;;;;;;5044944;28;20201;-79
2023/08/28 00:10:06;;;;;;;10.15;3.90;;;14.90;1.00;;;;;;5053459;28;20647;-79
2023/08/28 00:12:40;;;;;;;5.28;3.75;;;14.90;1.00;;;;;;5053739;28;20213;-79
2023/08/28 00:15:11;;;;;;;4.45;4.05;;;15.10;1.00;;;;;;5049942;28;20218;-79
2023/08/28 00:17:39;;;;;;;4.03;3.67;;;15.00;99.90;;;;;;5051293;28;20201;-79
2023/08/28 00:20:08;;;;;;;4.55;3.70;;;15.00;1.00;;;;;;5063199;28;20221;-79
2023/08/28 00:22:36;;;;;;;4.88;3.88;;;15.00;1.00;;;;;;5064875;28;20197;-79
2023/08/28 00:25:04;;;;;;;5.60;3.90;;;14.80;1.00;;;;;;5060924;28;20236;-79
2023/08/28 00:27:32;;;;;;;6.28;3.65;;;14.90;1.00;;;;;;5064160;28;20198;-79
2023/08/28 00:29:59;;;;;;;4.70;3.47;;;15.00;1.00;;;;;;5057245;28;20200;-79
2023/08/28 00:32:28;;;;;;;5.47;4.05;;;15.00;1.00;;;;;;5054476;28;20213;-79
2023/08/28 00:34:56;;;;;;;3.50;3.20;;;15.00;99.90;;;;;;5052941;28;20220;-79
2023/08/28 00:37:23;;;;;;;3.83;3.40;;;15.10;99.90;;;;;;5070118;28;20205;-79
2023/08/28 00:39:51;;;;;;;3.70;3.25;;;15.20;99.90;;;;;;5037790;28;20552;-79
2023/08/28 00:42:18;;;;;;;6.32;3.25;;;15.20;80.70;;;;;;5040760;28;20206;-79
2023/08/28 00:44:46;;;;;;;4.00;3.05;;;15.20;1.00;;;;;;5058207;28;20213;-79
2023/08/28 00:47:13;;;;;;;4.85;3.17;;;15.30;1.00;;;;;;5056255;28;20204;-79
2023/08/28 00:49:43;;;;;;;4.25;3.70;;;15.20;99.90;;;;;;5058772;28;20588;-79
2023/08/28 00:52:11;;;;;;;4.13;3.83;;;14.80;1.00;;;;;;5052561;28;20186;-79
2023/08/28 00:54:40;;;;;;;5.40;3.90;;;14.70;1.00;;;;;;5055858;28;20217;-79
2023/08/28 00:57:09;;;;;;;3.80;3.50;;;14.70;1.00;;;;;;5058105;28;20209;-80
2023/08/28 00:59:41;;;;;;;4.20;3.80;;;14.70;1.00;;;;;;5072241;28;20199;-79
2023/08/28 01:02:09;;;;;;;3.85;3.45;;;14.70;1.00;;;;;;5055766;28;20214;-79
2023/08/28 01:04:37;;;;;;;5.15;4.05;;;14.70;1.00;;;;;;5043167;28;20217;-79
2023/08/28 01:07:13;;;;;;;6.50;3.88;;;14.90;1.00;;;;;;5045384;28;20194;-79
2023/08/28 01:09:50;;;;;;;4.30;3.45;;;15.00;1.00;;;;;;5054637;28;20189;-79
2023/08/28 01:12:24;;;;;;;6.05;3.60;;;15.10;99.90;;;;;;5043853;28;20197;-79
2023/08/28 01:14:59;;;;;;;3.78;3.47;;;15.00;99.90;;;;;;5068444;28;20216;-79
2023/08/28 01:17:29;;;;;;;5.03;3.80;;;14.80;99.90;;;;;;5066423;28;20213;-79
2023/08/28 01:19:58;;;;;;;4.18;3.42;;;14.90;1.00;;;;;;5057734;28;20198;-79
2023/08/28 01:22:33;;;;;;;4.63;3.25;;;14.80;99.90;;;;;;5045733;28;20210;-79
2023/08/28 01:25:08;;;;;;;4.38;3.97;;;14.70;1.00;;;;;;5063568;28;20225;-79
2023/08/28 01:27:37;;;;;;;5.45;3.60;;;14.70;1.00;;;;;;5041813;28;20656;-79
2023/08/28 01:30:09;;;;;;;3.95;3.60;;;14.80;1.00;;;;;;5035274;28;20203;-79
2023/08/28 01:32:37;;;;;;;4.20;3.80;;;14.70;99.90;;;;;;5045383;28;20206;-79
2023/08/28 01:35:08;;;;;;;4.07;3.67;;;14.70;1.00;;;;;;5040554;28;20230;-79
2023/08/28 01:37:44;;;;;;;5.43;3.80;;;14.70;1.00;;;;;;5056203;28;20193;-79
2023/08/28 01:40:16;;;;;;;5.85;3.40;;;14.90;1.00;;;;;;5053180;28;20189;-79
2023/08/28 01:42:46;;;;;;;3.85;3.00;;;15.00;99.90;;;;;;5051525;28;20221;-79
2023/08/28 01:45:16;;;;;;;5.70;3.42;;;15.00;99.90;;;;;;5056806;28;20201;-79
2023/08/28 01:47:44;;;;;;;5.03;3.10;;;15.00;1.00;;;;;;5038554;28;20206;-79
2023/08/28 01:50:11;;;;;;;4.05;3.42;;;14.70;72.10;;;;;;5044199;28;20198;-79
2023/08/28 01:52:39;;;;;;;4.40;3.70;;;14.60;1.00;;;;;;5059118;28;20198;-79
2023/08/28 01:55:07;;;;;;;3.80;3.50;;;14.50;1.00;;;;;;5045874;28;20225;-79
2023/08/28 01:57:38;;;;;;;3.30;3.00;;;14.70;1.00;;;;;;5054163;28;20205;-79
2023/08/28 02:00:06;;;;;;;5.03;3.67;;;14.90;1.00;;;;;;5049556;28;20194;-79
2023/08/28 02:02:44;;;;;;;3.92;3.53;;;15.00;99.90;;;;;;5075791;28;20259;-79
2023/08/28 02:05:12;;;;;;;4.82;4.18;;;14.80;96.70;;;;;;5062076;28;20189;-79
2023/08/28 02:07:42;;;;;;;4.57;3.80;;;14.60;1.00;;;;;;5047367;28;20198;-79
2023/08/28 02:10:09;;;;;;;4.57;4.00;;;14.50;1.00;;;;;;5052389;28;20562;-79
2023/08/28 02:12:38;;;;;;;4.18;3.72;;;14.60;1.00;;;;;;5057829;28;20194;-79
2023/08/28 02:15:07;;;;;;;3.90;3.20;;;14.60;1.00;;;;;;5058021;28;20210;-79
2023/08/28 02:17:34;;;;;;;5.78;3.55;;;14.60;1.00;;;;;;5069992;28;20202;-79
2023/08/28 02:20:02;;;;;;;4.93;3.70;;;14.80;1.00;;;;;;5065912;28;20190;-80
2023/08/28 02:22:29;;;;;;;4.55;3.90;;;14.80;1.00;;;;;;5049896;28;20227;-79
2023/08/28 02:24:58;;;;;;;4.53;4.13;;;14.80;99.90;;;;;;5061649;28;20248;-79
2023/08/28 02:27:26;;;;;;;4.53;3.85;;;14.60;1.00;;;;;;5057439;28;20288;-79
2023/08/28 02:29:55;;;;;;;4.40;4.00;;;14.60;1.00;;;;;;5050169;28;20259;-80
2023/08/28 02:32:24;;;;;;;4.68;4.22;;;14.50;1.00;;;;;;5066848;28;20200;-80
2023/08/28 02:34:52;;;;;;;4.88;4.43;;;14.50;1.00;;;;;;5050587;28;20225;-80
2023/08/28 02:37:20;;;;;;;5.90;4.63;;;14.50;1.00;;;;;;5041088;28;20228;-80
2023/08/28 02:39:48;;;;;;;6.28;5.10;;;14.40;3.00;;;;;;5075136;28;20186;-80
2023/08/28 02:42:15;;;;;;;7.18;4.68;;;14.40;9.20;;;;;;5054193;28;20220;-79
2023/08/28 02:44:42;;;;;;;4.70;4.30;;;14.40;56.40;;;;;;5056572;28;20301;-80
2023/08/28 02:47:11;;;;;;;4.65;4.07;;;14.40;82.80;;;;;;5052161;28;20556;-80
2023/08/28 02:49:39;;;;;;;5.55;4.50;;;14.60;62.70;;;;;;5057766;28;20198;-80
2023/08/28 02:52:07;;;;;;;6.00;4.65;;;14.60;1.00;;;;;;5056489;28;20201;-80
2023/08/28 02:54:34;;;;;;;5.40;4.90;;;14.60;1.00;;;;;;5058632;28;20228;-80
2023/08/28 02:57:02;;;;;;;4.90;4.43;;;14.50;1.00;;;;;;5060884;28;20200;-80
2023/08/28 02:59:29;;;;;;;6.28;4.78;;;14.60;1.00;;;;;;5059851;28;20198;-80
2023/08/28 03:01:57;;;;;;;5.68;4.35;;;14.70;1.00;;;;;;5061905;28;20212;-80
2023/08/28 03:04:26;;;;;;;6.47;4.80;;;14.60;1.00;;;;;;5051490;28;20236;-80
2023/08/28 03:06:54;;;;;;;5.18;4.38;;;14.60;1.00;;;;;;5061970;28;20196;-80
2023/08/28 03:09:21;;;;;;;5.20;4.80;;;14.60;1.00;;;;;;5048540;28;20661;-80
2023/08/28 03:11:48;;;;;;;5.47;4.97;;;14.50;1.00;;;;;;5042754;28;20199;-80
2023/08/28 03:14:16;;;;;;;6.10;4.65;;;14.60;1.00;;;;;;5051805;28;20218;-79
2023/08/28 03:16:43;;;;;;;5.20;4.68;;;14.60;1.00;;;;;;5049661;28;20202;-80
2023/08/28 03:19:11;;;;;;;5.13;4.63;;;14.70;1.00;;;;;;5049993;28;20225;-80
2023/08/28 03:21:40;;;;;;;7.50;4.82;;;14.70;1.00;;;;;;5059986;28;20216;-80
2023/08/28 03:24:08;;;;;;;5.70;4.70;;;14.70;1.00;;;;;;5051170;28;20214;-80
2023/08/28 03:26:35;;;;;;;6.25;4.70;;;14.70;1.00;;;;;;5044390;28;20217;-80
2023/08/28 03:29:03;;;;;;;5.50;5.00;;;14.60;1.00;;;;;;5053071;28;20203;-80
2023/08/28 03:31:31;;;;;;;6.30;5.00;;;14.50;1.00;;;;;;5040623;28;20202;-80
2023/08/28 03:34:00;;;;;;;6.78;5.50;;;14.60;1.00;;;;;;5070017;28;20214;-80
2023/08/28 03:36:27;;;;;;;7.20;4.97;;;14.40;1.00;;;;;;5042143;28;20226;-80
2023/08/28 03:38:56;;;;;;;6.43;5.75;;;14.40;1.00;;;;;;5047981;28;20202;-80
2023/08/28 03:41:23;;;;;;;7.95;5.22;;;14.30;1.00;;;;;;5068651;28;20205;-80
2023/08/28 03:43:51;;;;;;;6.22;5.63;;;14.40;26.90;;;;;;5054871;28;20213;-80
2023/08/28 03:46:18;;;;;;;7.40;5.68;;;14.30;1.00;;;;;;5050105;28;20198;-80
2023/08/28 03:48:46;;;;;;;8.02;5.57;;;14.40;1.00;;;;;;5049140;28;20206;-80
2023/08/28 03:51:13;;;;;;;6.47;5.68;;;14.50;1.00;;;;;;5055328;28;20213;-80
2023/08/28 03:53:42;;;;;;;6.05;5.30;;;14.60;1.00;;;;;;5041930;28;20221;-80
2023/08/28 03:56:10;;;;;;;6.00;5.50;;;14.60;1.00;;;;;;5052410;28;20570;-80
2023/08/28 03:58:38;;;;;;;9.80;6.40;;;14.60;1.00;;;;;;5074053;28;20190;-80
2023/08/28 04:01:07;;;;;;;7.05;6.18;;;14.40;1.00;;;;;;5045172;28;20194;-80
2023/08/28 04:03:34;;;;;;;9.40;6.78;;;14.50;1.00;;;;;;5064608;28;20209;-80
2023/08/28 04:06:02;;;;;;;6.75;6.15;;;14.40;99.90;;;;;;5048852;28;20206;-79
2023/08/28 04:08:29;;;;;;;8.65;6.55;;;14.50;12.90;;;;;;5043419;28;20197;-80
2023/08/28 04:10:58;;;;;;;7.88;7.07;;;14.40;1.00;;;;;;5075400;28;20205;-80
2023/08/28 04:13:27;;;;;;;8.05;7.25;;;14.30;60.90;;;;;;5052289;28;20228;-80
2023/08/28 04:16:11;;;;;;;7.97;7.18;;;14.30;99.90;;;;;;5046939;28;20210;-80
2023/08/28 04:18:38;;;;;;;8.57;7.78;;;14.30;99.90;;;;;;5069154;28;20586;-80
2023/08/28 04:21:06;;;;;;;8.80;7.88;;;14.30;85.00;;;;;;5056858;28;20208;-80
2023/08/28 04:23:33;;;;;;;8.10;7.15;;;14.30;99.90;;;;;;5073838;28;20221;-79
2023/08/28 04:26:01;;;;;;;8.10;7.30;;;14.20;99.90;;;;;;5065559;28;20202;-80
2023/08/28 04:28:30;;;;;;;8.43;7.65;;;14.30;99.90;;;;;;5054963;28;20200;-80
2023/08/28 04:30:57;;;;;;;8.77;7.68;;;14.30;99.90;;;;;;5061605;28;20202;-80
2023/08/28 04:33:27;;;;;;;9.30;8.18;;;14.30;99.90;;;;;;5079482;28;20228;-79
2023/08/28 04:35:54;;;;;;;9.63;8.70;;;14.10;99.90;;;;;;5064456;28;20193;-80
2023/08/28 04:38:23;;;;;;;9.50;8.35;;;14.20;99.90;;;;;;5077292;28;20197;-79
2023/08/28 04:40:50;;;;;;;9.50;8.60;;;14.20;99.90;;;;;;5062049;28;20205;-80
2023/08/28 04:43:18;;;;;;;10.82;8.60;;;14.10;99.90;;;;;;5074891;28;20233;-80
2023/08/28 04:45:49;;;;;;;8.85;8.05;;;14.10;99.90;;;;;;5062190;28;20607;-80
2023/08/28 04:48:18;;;;;;;12.65;8.70;;;14.10;99.90;;;;;;5051189;28;20194;-80
2023/08/28 04:50:46;;;;;;;11.40;8.60;;;14.00;99.90;;;;;;5047263;28;20194;-80
2023/08/28 04:53:13;;;;;;;10.93;9.80;;;14.00;99.90;;;;;;5050546;28;20210;-79
2023/08/28 04:55:41;;;;;;;12.10;9.73;;;14.00;99.90;;;;;;5053303;28;20199;-80
2023/08/28 04:58:08;;;;;;;10.70;8.80;;;14.10;99.90;;;;;;5049672;28;20210;-80
2023/08/28 05:00:36;;;;;;;9.98;8.98;;;14.10;99.90;;;;;;5040831;28;20210;-80
2023/08/28 05:03:06;;;;;;;10.25;8.77;;;14.00;99.90;;;;;;5050443;28;20206;-79
2023/08/28 05:05:33;;;;;;;10.65;9.55;;;14.00;99.90;;;;;;5046027;28;20214;-80
2023/08/28 05:08:01;;;;;;;11.07;9.18;;;14.00;99.90;;;;;;5054686;28;20197;-79
2023/08/28 05:10:29;;;;;;;11.18;10.10;;;14.10;99.90;;;;;;5068012;28;20213;-79
2023/08/28 05:12:56;;;;;;;10.32;9.02;;;14.00;99.90;;;;;;5057767;28;20205;-79
2023/08/28 05:15:24;;;;;;;10.38;9.38;;;14.20;99.90;;;;;;5059325;28;20213;-79
2023/08/28 05:17:53;;;;;;;11.20;9.80;;;14.10;99.90;;;;;;5059630;28;20214;-80
2023/08/28 05:20:22;;;;;;;11.25;9.00;;;14.20;99.90;;;;;;5053857;28;20213;-80
2023/08/28 05:22:49;;;;;;;9.93;8.90;;;14.10;99.90;;;;;;5056220;28;20217;-80
2023/08/28 05:25:17;;;;;;;11.05;8.98;;;14.20;99.90;;;;;;5059608;28;20206;-80
2023/08/28 05:27:45;;;;;;;10.77;9.73;;;14.30;99.90;;;;;;5057699;28;20204;-80
2023/08/28 05:30:13;;;;;;;10.27;9.23;;;14.30;99.90;;;;;;5060286;28;20216;-80
2023/08/28 05:32:41;;;;;;;9.32;8.43;;;14.40;99.90;;;;;;5073786;28;20198;-80
2023/08/28 05:35:12;;;;;;;9.65;8.43;;;14.50;99.90;;;;;;5060999;28;20216;-80
2023/08/28 05:37:43;;;;;;;9.20;8.02;;;14.60;99.90;;;;;;5055521;28;20198;-80
2023/08/28 05:40:14;;;;;;;9.32;8.45;;;14.70;99.90;;;;;;5058439;28;20201;-80
2023/08/28 05:42:45;;;;;;;11.45;8.38;;;14.70;4.50;;;;;;5056304;28;20213;-80
2023/08/28 05:45:12;;;;;;;11.48;10.10;;;14.50;99.90;;;;;;5053558;28;20202;-80
2023/08/28 05:47:40;;;;;;;10.43;9.13;;;14.40;99.90;;;;;;5055962;28;20198;-80
2023/08/28 05:50:10;;;;;;;10.85;9.65;;;14.30;99.90;;;;;;5056633;28;20205;-80
2023/08/28 05:52:46;;;;;;;9.98;8.98;;;14.40;99.90;;;;;;5055207;28;20208;-79
2023/08/28 05:55:13;;;;;;;10.38;9.30;;;14.60;99.90;;;;;;5041947;28;20194;-80
2023/08/28 05:57:41;;;;;;;11.30;7.85;;;14.70;99.90;;;;;;5047734;28;20205;-79
2023/08/28 06:00:12;;;;;;;8.82;7.28;;;14.70;99.90;;;;;;5046691;28;20202;-79
2023/08/28 06:02:41;;;;;;;11.13;9.05;;;15.20;99.90;;;;;;5067755;28;20212;-79
2023/08/28 06:05:09;;;;;;;13.00;9.15;;;15.30;1.00;;;;;;5053115;28;20575;-79
2023/08/28 06:07:37;;;;;;;14.20;9.15;;;15.40;1.00;;;;;;5061357;28;20193;-79
2023/08/28 06:10:08;;;;;;;10.65;9.55;;;14.90;1.00;;;;;;5043832;28;20198;-79
2023/08/28 06:12:36;;;;;;;9.73;8.73;;;14.70;42.80;;;;;;5043976;28;20198;-78
2023/08/28 06:15:04;;;;;;;10.80;9.75;;;14.70;99.90;;;;;;5051051;28;20225;-78
2023/08/28 06:17:32;;;;;;;10.88;9.77;;;14.90;99.90;;;;;;5056587;28;20201;-78
2023/08/28 06:19:59;;;;;;;11.30;9.07;;;14.80;99.90;;;;;;5054140;28;20209;-78
2023/08/28 06:22:28;;;;;;;11.00;9.48;;;15.00;99.90;;;;;;5057821;28;20197;-78
2023/08/28 06:24:55;;;;;;;13.68;10.30;;;15.00;99.90;;;;;;5051316;28;20225;-78
2023/08/28 06:27:24;;;;;;;10.70;9.60;;;14.90;2.50;;;;;;5058265;28;20213;-78
2023/08/28 06:29:51;;;;;;;14.80;10.23;;;14.90;99.90;;;;;;5062016;28;20202;-78
2023/08/28 06:32:31;;;;;;;11.57;9.75;;;15.00;26.80;;;;;;5073100;28;20189;-78
2023/08/28 06:35:06;;;;;;;11.43;10.32;;;15.10;72.60;;;;;;5049978;28;20217;-78
2023/08/28 06:37:41;;;;;;;12.10;10.80;;;15.10;1.00;;;;;;5075989;28;20196;-78
2023/08/28 06:40:13;;;;;;;12.10;10.93;;;15.10;1.00;;;;;;5062801;28;20200;-79
2023/08/28 06:42:45;;;;;;;12.70;10.75;;;15.10;6.00;;;;;;5066123;28;20178;-80
2023/08/28 06:45:14;;;;;;;12.00;9.68;;;15.10;99.90;;;;;;5062844;28;20213;-79
2023/08/28 06:47:41;;;;;;;10.48;9.57;;;15.20;1.00;;;;;;5053997;28;20209;-79
2023/08/28 06:50:10;;;;;;;12.27;10.68;;;15.40;1.00;;;;;;5056073;28;20205;-79
2023/08/28 06:53:04;;;;;;;11.20;10.10;;;15.40;1.00;;;;;;5068628;28;20563;-79
2023/08/28 06:55:32;;;;;;;12.00;10.80;;;15.50;1.00;;;;;;5058967;28;20197;-79
2023/08/28 06:58:01;;;;;;;16.15;12.52;;;15.30;1.00;;;;;;5051196;28;20205;-79
2023/08/28 07:00:28;;;;;;;13.35;10.90;;;15.20;1.00;;;;;;5054085;28;20198;-79
2023/08/28 07:02:56;;;;;;;12.27;11.07;;;15.20;99.90;;;;;;5045934;28;20198;-79
2023/08/28 07:05:23;;;;;;;12.98;11.70;;;15.30;99.90;;;;;;5051099;28;20213;-80
2023/08/28 07:07:50;;;;;;;14.57;12.10;;;15.20;99.90;;;;;;5049225;28;20206;-80
2023/08/28 07:10:18;;;;;;;11.63;10.43;;;15.30;91.30;;;;;;5067079;28;20182;-80
2023/08/28 07:12:45;;;;;;;13.98;12.15;;;15.40;99.90;;;;;;5055445;28;20213;-80
2023/08/28 07:15:50;;;;;;;13.32;11.23;;;15.40;1.00;;;;;;5076354;28;20545;-80
2023/08/28 07:18:18;;;;;;;15.23;10.85;;;15.60;1.00;;;;;;5051072;28;20205;-81
2023/08/28 07:20:46;;;;;;;13.02;10.35;;;16.30;65.00;;;;;;5053615;28;20197;-80
2023/08/28 07:23:13;;;;;;;12.63;10.93;;;16.00;99.90;;;;;;5063178;28;20214;-80
2023/08/28 07:25:41;;;;;;;11.55;10.23;;;16.20;1.00;;;;;;5055962;28;20209;-79
2023/08/28 07:28:09;;;;;;;21.95;12.23;;;16.40;1.00;;;;;;5043398;28;20211;-79
2023/08/28 07:30:37;;;;;;;15.50;10.93;;;16.60;1.00;;;;;;5046784;28;20193;-80
2023/08/28 07:33:05;;;;;;;17.67;11.18;;;16.50;1.00;;;;;;5056578;28;20209;-80
2023/08/28 07:35:35;;;;;;;13.70;11.43;;;16.30;99.90;;;;;;5044738;28;20198;-79
2023/08/28 07:38:05;;;;;;;14.68;10.75;;;16.00;99.90;;;;;;5060485;28;20186;-80
2023/08/28 07:40:34;;;;;;;10.55;7.63;;;16.30;99.90;;;;;;5051753;28;20217;-80
2023/08/28 07:43:10;;;;;;;12.00;10.55;;;16.70;99.90;;;;;;5062623;28;20686;-79
2023/08/28 07:45:38;;;;;;;14.27;9.48;;;16.80;99.90;;;;;;5043190;28;20213;-80
2023/08/28 07:48:07;;;;;;;10.25;8.63;;;17.00;1.00;;;;;;5036772;28;20727;-81
2023/08/28 07:50:36;;;;;;;11.95;8.25;;;17.20;1.00;;;;;;5051678;28;20212;-80
2023/08/28 07:53:04;;;;;;;10.77;8.43;;;17.30;1.00;;;;;;5046835;28;20656;-78
2023/08/28 07:55:31;;;;;;;9.85;7.50;;;17.40;40.00;;;;;;5044864;28;20203;-80
2023/08/28 07:57:59;;;;;;;10.00;7.93;;;17.70;10.40;;;;;;5067327;28;20206;-79
2023/08/28 08:00:26;;;;;;;12.00;8.77;;;17.70;1.00;;;;;;5059436;28;20205;-81
2023/08/28 08:02:53;;;;;;;10.88;9.15;;;17.60;1.00;;;;;;5046244;28;20277;-81
2023/08/28 08:05:21;;;;;;;9.55;6.88;;;17.30;12.10;;;;;;5048726;28;20213;-81
2023/08/28 08:07:51;;;;;;;7.90;6.57;;;17.80;99.90;;;;;;5052881;28;20206;-80
2023/08/28 08:10:18;;;;;;;8.48;6.55;;;18.00;99.90;;;;;;5054365;28;20213;-81
2023/08/28 08:12:46;;;;;;;7.32;6.60;;;18.20;27.20;;;;;;5044275;28;20238;-81
2023/08/28 08:15:26;;;;;;;12.18;6.95;;;17.30;1.00;;;;;;5045570;28;20218;-82
2023/08/28 08:17:53;;;;;;;11.80;7.88;;;17.20;1.00;;;;;;5048956;28;20193;-81
2023/08/28 08:20:20;;;;;;;13.32;7.13;;;17.30;99.90;;;;;;5063301;28;20995;-82
2023/08/28 08:22:48;;;;;;;10.63;6.38;;;17.60;1.00;;;;;;5054267;28;20198;-81
2023/08/28 08:25:17;;;;;;;9.27;8.38;;;17.70;1.00;;;;;;5046834;28;20591;-80
2023/08/28 08:27:45;;;;;;;12.27;8.70;;;17.10;1.00;;;;;;5050754;28;20216;-80
2023/08/28 08:30:14;;;;;;;11.38;9.27;;;16.80;1.00;;;;;;5040529;28;20198;-80
2023/08/28 08:32:43;;;;;;;8.40;5.75;;;16.80;1.00;;;;;;5054816;28;20189;-79
2023/08/28 08:35:15;;;;;;;10.25;9.05;;;17.30;99.90;;;;;;5047387;28;20232;-78
2023/08/28 08:37:43;;;;;;;10.85;9.65;;;17.50;99.90;;;;;;5036602;28;20198;-79
2023/08/28 08:40:14;;;;;;;6.80;5.88;;;17.50;1.00;;;;;;5057926;28;20669;-80
2023/08/28 08:42:43;;;;;;;7.85;6.60;;;18.00;1.00;;;;;;5065951;28;20221;-80
2023/08/28 08:45:11;;;;;;;7.40;5.85;;;17.70;99.90;;;;;;5060578;28;20714;-80
2023/08/28 08:47:40;;;;;;;7.32;6.63;;;18.20;99.90;;;;;;5076174;28;20186;-79
2023/08/28 08:50:09;;;;;;;8.43;7.47;;;17.90;1.00;;;;;;5065139;28;20214;-80
2023/08/28 08:52:39;;;;;;;7.00;5.30;;;17.80;99.90;;;;;;5070603;28;20560;-79
2023/08/28 08:55:21;;;;;;;8.98;6.00;;;18.10;1.00;;;;;;5056939;28;20217;-79
2023/08/28 08:57:55;;;;;;;10.00;8.82;;;18.40;1.00;;;;;;5055687;28;20201;-80
2023/08/28 09:00:23;;;;;;;7.07;6.47;;;18.30;99.90;;;;;;5058893;28;20600;-80
2023/08/28 09:02:52;;;;;;;8.13;7.32;;;18.50;20.10;;;;;;5059379;28;20210;-80
2023/08/28 09:05:20;;;;;;;9.20;8.30;;;18.40;99.90;;;;;;5038990;28;20210;-79
2023/08/28 09:07:49;;;;;;;10.50;8.73;;;18.10;1.00;;;;;;5067794;28;20208;-78
2023/08/28 09:10:16;;;;;;;10.75;6.75;;;18.00;99.90;;;;;;5056244;28;20194;-78
2023/08/28 09:12:46;;;;;;;8.43;6.65;;;18.20;99.90;;;;;;5059143;28;20201;-78
2023/08/28 09:15:16;;;;;;;7.28;6.57;;;18.30;99.90;;;;;;5069867;28;20221;-79
2023/08/28 09:17:44;;;;;;;8.60;6.70;;;18.40;99.90;;;;;;5058165;28;20194;-79
2023/08/28 09:20:16;;;;;;;8.80;7.60;;;18.60;99.90;;;;;;5055286;28;20204;-78
2023/08/28 09:22:50;;;;;;;9.48;6.10;;;18.00;99.90;;;;;;5054568;28;20209;-78
2023/08/28 09:25:18;;;;;;;9.45;7.38;;;18.20;99.90;;;;;;5055422;28;20228;-78
2023/08/28 09:27:46;;;;;;;8.27;7.57;;;17.90;99.90;;;;;;5056009;28;20205;-78
2023/08/28 09:30:29;;;;;;;8.35;7.40;;;18.10;96.00;;;;;;5065085;28;20195;-78
2023/08/28 09:32:58;;;;;;;7.22;6.53;;;17.80;1.00;;;;;;5058681;28;20668;-78
2023/08/28 09:35:39;;;;;;;6.95;6.22;;;17.90;99.90;;;;;;5058620;28;20201;-78
2023/08/28 09:38:06;;;;;;;7.35;5.97;;;18.10;99.90;;;;;;5067091;28;20209;-78
2023/08/28 09:40:36;;;;;;;6.40;5.75;;;18.40;39.10;;;;;;5052214;28;20201;-81
2023/08/28 09:43:11;;;;;;;8.68;6.72;;;18.70;1.00;;;;;;5073098;28;20200;-78
2023/08/28 09:45:40;;;;;;;6.05;5.35;;;18.80;1.00;;;;;;5065623;28;20227;-77
2023/08/28 09:48:12;;;;;;;5.60;5.10;;;18.70;99.90;;;;;;5074584;28;20205;-79
2023/08/28 09:50:41;;;;;;;5.88;5.38;;;18.70;99.90;;;;;;5029197;28;20202;-79
2023/08/28 09:53:13;;;;;;;8.00;6.90;;;18.70;99.90;;;;;;5047589;28;20197;-78
2023/08/28 09:55:45;;;;;;;8.07;6.28;;;18.70;99.90;;;;;;5055186;28;20205;-78
2023/08/28 09:58:13;;;;;;;8.68;6.25;;;18.90;99.90;;;;;;5076409;28;20208;-78
2023/08/28 10:00:42;;;;;;;8.50;7.13;;;18.90;99.90;;;;;;5075899;28;20204;-78
2023/08/28 10:03:15;;;;;;;7.20;6.03;;;18.50;99.90;;;;;;5069589;28;20225;-78
2023/08/28 10:05:45;;;;;;;7.65;5.57;;;18.70;99.90;;;;;;5055306;28;20231;-79
2023/08/28 10:08:14;;;;;;;5.57;4.93;;;18.90;99.90;;;;;;5041541;28;20202;-79
2023/08/28 10:10:45;;;;;;;6.72;5.45;;;18.90;99.90;;;;;;5046555;28;20218;-78
2023/08/28 10:13:15;;;;;;;6.78;6.18;;;19.00;99.90;;;;;;5055261;28;20236;-79
2023/08/28 10:15:52;;;;;;;7.22;6.53;;;19.00;99.90;;;;;;5068595;28;20194;-79
2023/08/28 10:18:27;;;;;;;9.13;7.22;;;19.10;99.90;;;;;;5050466;28;20198;-79
2023/08/28 10:20:55;;;;;;;7.88;7.05;;;18.90;99.90;;;;;;5049199;28;20772;-78
2023/08/28 10:23:25;;;;;;;9.05;7.97;;;18.90;99.90;;;;;;5072424;28;20225;-79
2023/08/28 10:25:54;;;;;;;11.57;9.68;;;19.00;1.00;;;;;;5047905;28;20226;-79
2023/08/28 10:28:22;;;;;;;12.75;11.15;;;19.10;1.00;;;;;;5051308;28;20194;-79
2023/08/28 10:30:52;;;;;;;13.77;11.18;;;18.80;1.00;;;;;;5072929;28;20199;-79
2023/08/28 10:33:20;;;;;;;14.70;12.02;;;19.00;1.00;;;;;;5044360;28;20230;-79
2023/08/28 10:35:51;;;;;;;16.27;14.50;;;18.80;1.00;;;;;;5063659;28;20658;-79
2023/08/28 10:38:21;;;;;;;17.45;14.18;;;18.80;1.00;;;;;;5056873;28;20579;-79
2023/08/28 10:40:53;;;;;;;17.85;14.25;;;18.40;1.00;;;;;;5044911;28;20194;-79
2023/08/28 10:43:22;;;;;;;14.98;12.93;;;18.30;1.00;;;;;;5055426;28;20702;-79
2023/08/28 10:45:54;;;;;;;16.30;13.10;;;18.50;4.00;;;;;;5054989;28;20210;-79
2023/08/28 10:48:22;;;;;;;14.90;13.20;;;19.00;1.00;;;;;;5057913;28;20213;-79
2023/08/28 10:50:56;;;;;;;13.25;11.73;;;19.00;1.00;;;;;;5067376;28;20194;-79
2023/08/28 10:53:24;;;;;;;13.23;11.48;;;19.30;1.00;;;;;;5056863;28;20213;-78
2023/08/28 10:55:53;;;;;;;13.75;11.35;;;19.10;99.90;;;;;;5070803;28;20198;-78
2023/08/28 10:58:30;;;;;;;15.95;10.95;;;19.10;99.90;;;;;;5062674;28;20189;-78
2023/08/28 11:01:14;;;;;;;13.38;11.10;;;19.20;99.90;;;;;;5057256;28;20190;-78
2023/08/28 11:03:56;;;;;;;11.50;9.95;;;19.40;99.90;;;;;;5056746;28;20218;-78
2023/08/28 11:06:39;;;;;;;10.02;8.95;;;19.40;99.90;;;;;;5084235;28;20205;-79
2023/08/28 11:09:32;;;;;;;11.75;10.55;;;19.40;99.90;;;;;;5050942;28;20198;-79
2023/08/28 11:12:28;;;;;;;11.02;9.80;;;19.80;99.90;;;;;;5050200;28;20549;-79
2023/08/28 11:15:06;;;;;;;13.00;10.55;;;19.80;99.90;;;;;;5053368;28;20222;-79
2023/08/28 11:17:34;;;;;;;12.70;10.52;;;19.70;99.90;;;;;;5056883;28;20201;-79
2023/08/28 11:20:21;;;;;;;11.23;10.18;;;19.50;99.90;;;;;;5071832;28;20189;-79
2023/08/28 11:22:48;;;;;;;11.25;9.13;;;19.80;99.90;;;;;;5067830;28;20192;-79
2023/08/28 11:25:36;;;;;;;11.98;10.77;;;19.70;99.90;;;;;;5066698;28;20221;-79
2023/08/28 11:28:04;;;;;;;11.77;10.07;;;19.80;99.90;;;;;;5054708;28;20190;-81
2023/08/28 11:30:32;;;;;;;9.95;8.95;;;19.90;99.90;;;;;;5046586;28;20209;-80
2023/08/28 11:33:03;;;;;;;7.07;6.47;;;20.00;99.90;;;;;;5050022;28;20199;-80
2023/08/28 11:35:31;;;;;;;6.32;5.72;;;20.20;99.90;;;;;;5047350;28;20198;-79
2023/08/28 11:37:59;;;;;;;7.85;6.13;;;20.20;99.90;;;;;;5057563;28;20198;-79
2023/08/28 11:40:27;;;;;;;8.75;7.32;;;20.10;99.90;;;;;;5071115;28;20205;-79
2023/08/28 11:43:03;;;;;;;11.50;7.20;;;20.10;99.90;;;;;;5049946;28;20195;-80
2023/08/28 11:45:31;;;;;;;7.95;7.10;;;20.10;99.90;;;;;;5054016;28;20202;-79
2023/08/28 11:48:09;;;;;;;6.75;6.15;;;20.10;99.90;;;;;;5061951;28;20217;-79
2023/08/28 11:50:36;;;;;;;9.32;4.40;;;20.00;99.90;;;;;;5041912;28;20210;-79
2023/08/28 11:53:04;;;;;;;3.47;3.17;;;19.90;99.90;;;;;;5044145;28;20207;-80
2023/08/28 11:55:33;;;;;;;3.33;3.05;;;19.90;99.90;;;;;;5058005;28;20197;-80
2023/08/28 11:58:01;;;;;;;2.80;2.53;;;20.10;99.90;;;;;;5059195;28;20212;-80
2023/08/28 12:00:30;;;;;;;4.03;2.88;;;20.40;99.90;;;;;;5052674;28;20198;-81
2023/08/28 12:02:57;;;;;;;4.10;3.03;;;20.50;99.90;;;;;;5079880;28;20551;-81
2023/08/28 12:05:27;;;;;;;2.58;2.30;;;20.40;99.90;;;;;;5060860;28;20209;-81
2023/08/28 12:07:54;;;;;;;5.05;3.55;;;20.80;99.90;;;;;;5054614;28;20587;-81
2023/08/28 12:10:22;;;;;;;3.45;2.80;;;20.70;99.90;;;;;;5078573;28;20216;-81
2023/08/28 12:12:55;;;;;;;3.83;3.53;;;20.70;99.90;;;;;;5059732;28;20190;-80
2023/08/28 12:15:31;;;;;;;6.25;5.65;;;20.70;99.90;;;;;;5055287;28;20189;-80
2023/08/28 12:18:03;;;;;;;3.50;3.20;;;21.00;99.90;;;;;;5040598;28;20198;-80
2023/08/28 12:20:37;;;;;;;2.20;2.00;;;20.90;99.90;;;;;;5048670;28;20205;-80
2023/08/28 12:23:05;;;;;;;2.47;1.90;;;20.70;99.90;;;;;;5066895;28;20185;-80
2023/08/28 12:25:34;;;;;;;1.98;1.83;;;20.80;99.90;;;;;;5060525;28;20217;-80
2023/08/28 12:28:07;;;;;;;2.55;1.83;;;20.80;99.90;;;;;;5057817;28;20198;-80
2023/08/28 12:30:35;;;;;;;4.45;2.15;;;20.80;99.90;;;;;;5052592;28;20248;-80
2023/08/28 12:33:04;;;;;;;3.83;2.85;;;20.90;99.90;;;;;;5052546;28;20198;-80
2023/08/28 12:35:38;;;;;;;4.05;2.72;;;21.00;99.90;;;;;;5049357;28;20196;-80
2023/08/28 12:38:05;;;;;;;3.97;2.67;;;20.80;99.90;;;;;;5068849;28;20193;-80
2023/08/28 12:40:35;;;;;;;3.60;2.65;;;20.90;99.90;;;;;;5040728;28;20198;-80
2023/08/28 12:43:03;;;;;;;6.97;2.45;;;20.70;99.90;;;;;;5055285;28;20213;-80
2023/08/28 12:45:33;;;;;;;3.15;2.65;;;20.80;99.90;;;;;;5046839;28;20198;-80
2023/08/28 12:48:02;;;;;;;1.67;1.48;;;20.80;99.90;;;;;;5072973;28;20216;-80
2023/08/28 12:50:29;;;;;;;2.15;1.52;;;20.90;99.90;;;;;;5074911;28;20202;-80
2023/08/28 12:52:58;;;;;;;2.97;2.20;;;21.10;99.90;;;;;;5073710;28;20190;-80
2023/08/28 12:55:25;;;;;;;2.38;1.85;;;21.40;99.90;;;;;;5054935;28;20363;-80
2023/08/28 12:57:55;;;;;;;2.10;1.90;;;21.60;99.90;;;;;;5052049;28;20213;-80